Midvale, UT

9:42 AM MDT on October 24, 2014 (GMT -0600)
Walden Meadows | Change Station
CLOSE
Current Station
Personal Weather Station
Location: Murray, UT
Elevation: 4278 ft
Nearby Weather Stations
Active Advisory: Special Statement

Elev 4278 ft 40.65 °N, 111.92 °W | Updated 3 seconds ago

Clear
Clear
53.6 °F
Feels Like 53.6 °F
N
0.0
Wind Variable Wind from NNW
Gusts 1.0 mph

Today
High -- | Low -- °F
--% Chance of Precip.
Yesterday
High -- | Low -- °F
Precip. -- in
7:48 AM 6:34 PM
New Moon, 1% visible
Pressure 30.10 in
Visibility 10.0 miles
Clouds Few 14000 ft
Few 20000 ft
Dew Point 44 °F
Humidity 71%
Rainfall 0.00 in
Snow Depth 0 in , 0 in , 1 in
UV 1.1 out of 12
Pollen 1.80 out of 12
PM2.5 Good
Flu Activity Sporadic
METAR KSLC 241453Z 17003KT 10SM FEW140 FEW200 09/06 A3017 RMK AO2 SLP193 ACSL DSNT NW T00940056 53013

More Conditions Fewer Conditions

Pressure 30.10 in
Visibility 10.0 miles
Clouds Few 14000 ft
Few 20000 ft
Dew Point 44 °F
Humidity 71%
Rainfall 0.00 in
Snow Depth 0 in , 0 in , 1 in
UV 1.1 out of 12
Pollen 1.80 out of 12
PM2.5 Good
Flu Activity Sporadic
METAR KSLC 241453Z 17003KT 10SM FEW140 FEW200 09/06 A3017 RMK AO2 SLP193 ACSL DSNT NW T00940056 53013

More Conditions Fewer Conditions

10-Day Weather Forecast

Almanac

Astronomy

Oct. 24, 2014 Rise Set
Actual Time 7:48 AM MDT 6:34 PM MDT
Civil Twilight 7:20 AM MDT 7:02 PM MDT
Nautical Twilight 6:48 AM MDT 7:34 PM MDT
Astronomical Twilight 6:17 AM MDT 8:05 PM MDT
Moon 8:31 AM MDT 7:16 PM MDT
Length of Visible Light 11h 41m
Length of Day
10h 45m
Tomorrow will be 2m 28s shorter.
New Moon, 1% of the Moon is Illuminated
Today
New Moon
Oct 30
First Quarter
Nov 6
Full
Nov 14
Last Quarter
Nov 22
New

Today's Extremes

State Highs State Lows

Community

WunderPhotos

Upload Photos

1,764,590 photos uploaded!

WunderBlogs® & News

Nearby

Air Quality

  Air Quality AQ Index Pollutant
Yesterday Good
OZONE
Yesterday Good
PM2.5
Current Good
PM2.5
Friday Good
OZONE
Saturday Good
OZONE
Sunday Good
OZONE

Snow Depth

Station Depth Elevation
Mill-d North 0 in 8960 ft
Dry Fork 0 in 7160 ft
Brighton 1 in 8750 ft
Louis Meadow 1 in 6700 ft
Thaynes Canyon 0 in 9200 ft

Earthquake Activity

City Distance Mag. Time & Date
Ferron, Utah 116 miles 2.5 10:53 PM MDT
2014-10-21
Minimum magnitude displayed is 2.5.

Coastal Water Temperatures

Place Temperature
No Stations Reporting

Nearby Weather Stations